sensor_id;sensor_type;location;lat;lon;timestamp;P1;durP1;ratioP1;P2;durP2;ratioP2
9960;SDS011;5021;51.506;11.320;2023-11-21T00:00:56;6.63;;;5.27;;
9960;SDS011;5021;51.506;11.320;2023-11-21T00:03:23;6.13;;;5.00;;
9960;SDS011;5021;51.506;11.320;2023-11-21T00:05:49;6.77;;;4.80;;
9960;SDS011;5021;51.506;11.320;2023-11-21T00:08:15;6.27;;;5.07;;
9960;SDS011;5021;51.506;11.320;2023-11-21T00:10:41;15.27;;;13.77;;
9960;SDS011;5021;51.506;11.320;2023-11-21T00:13:08;10.83;;;6.77;;
9960;SDS011;5021;51.506;11.320;2023-11-21T00:15:33;6.27;;;5.67;;
9960;SDS011;5021;51.506;11.320;2023-11-21T00:17:59;9.57;;;7.67;;
9960;SDS011;5021;51.506;11.320;2023-11-21T00:20:25;10.93;;;7.53;;
9960;SDS011;5021;51.506;11.320;2023-11-21T00:22:51;7.27;;;6.03;;
9960;SDS011;5021;51.506;11.320;2023-11-21T00:25:17;8.27;;;5.67;;
9960;SDS011;5021;51.506;11.320;2023-11-21T00:27:43;8.73;;;6.13;;
9960;SDS011;5021;51.506;11.320;2023-11-21T00:30:09;6.40;;;5.27;;
9960;SDS011;5021;51.506;11.320;2023-11-21T00:32:36;7.63;;;5.37;;
9960;SDS011;5021;51.506;11.320;2023-11-21T00:35:02;6.13;;;4.77;;
9960;SDS011;5021;51.506;11.320;2023-11-21T00:37:28;8.30;;;5.30;;
9960;SDS011;5021;51.506;11.320;2023-11-21T00:39:57;7.20;;;4.87;;
9960;SDS011;5021;51.506;11.320;2023-11-21T00:42:23;9.23;;;5.87;;
9960;SDS011;5021;51.506;11.320;2023-11-21T00:44:49;6.07;;;4.50;;
9960;SDS011;5021;51.506;11.320;2023-11-21T00:47:15;5.30;;;4.10;;
9960;SDS011;5021;51.506;11.320;2023-11-21T00:49:41;5.20;;;3.90;;
9960;SDS011;5021;51.506;11.320;2023-11-21T00:52:08;6.83;;;4.00;;
9960;SDS011;5021;51.506;11.320;2023-11-21T00:54:34;6.63;;;5.17;;
9960;SDS011;5021;51.506;11.320;2023-11-21T00:57:00;5.57;;;5.00;;
9960;SDS011;5021;51.506;11.320;2023-11-21T00:59:26;8.90;;;5.67;;
9960;SDS011;5021;51.506;11.320;2023-11-21T01:01:52;8.63;;;5.43;;
9960;SDS011;5021;51.506;11.320;2023-11-21T01:04:19;5.97;;;5.07;;
9960;SDS011;5021;51.506;11.320;2023-11-21T01:06:45;6.90;;;4.67;;
9960;SDS011;5021;51.506;11.320;2023-11-21T01:09:11;9.20;;;5.60;;
9960;SDS011;5021;51.506;11.320;2023-11-21T01:11:37;7.50;;;5.10;;
9960;SDS011;5021;51.506;11.320;2023-11-21T01:14:04;9.30;;;6.30;;
9960;SDS011;5021;51.506;11.320;2023-11-21T01:16:31;10.50;;;5.50;;
9960;SDS011;5021;51.506;11.320;2023-11-21T01:19:00;9.60;;;5.67;;
9960;SDS011;5021;51.506;11.320;2023-11-21T01:21:26;10.83;;;5.90;;
9960;SDS011;5021;51.506;11.320;2023-11-21T01:23:53;20.37;;;7.03;;
9960;SDS011;5021;51.506;11.320;2023-11-21T01:26:20;13.93;;;6.70;;
9960;SDS011;5021;51.506;11.320;2023-11-21T01:28:46;11.83;;;6.40;;
9960;SDS011;5021;51.506;11.320;2023-11-21T01:31:14;12.57;;;7.00;;
9960;SDS011;5021;51.506;11.320;2023-11-21T01:33:40;10.13;;;6.30;;
9960;SDS011;5021;51.506;11.320;2023-11-21T01:36:06;11.17;;;6.43;;
9960;SDS011;5021;51.506;11.320;2023-11-21T01:38:32;15.03;;;7.30;;
9960;SDS011;5021;51.506;11.320;2023-11-21T01:40:58;15.30;;;6.70;;
9960;SDS011;5021;51.506;11.320;2023-11-21T01:43:25;13.43;;;6.67;;
9960;SDS011;5021;51.506;11.320;2023-11-21T01:45:52;12.93;;;6.87;;
9960;SDS011;5021;51.506;11.320;2023-11-21T01:48:18;9.33;;;6.60;;
9960;SDS011;5021;51.506;11.320;2023-11-21T01:50:44;10.90;;;6.67;;
9960;SDS011;5021;51.506;11.320;2023-11-21T01:53:11;11.13;;;7.07;;
9960;SDS011;5021;51.506;11.320;2023-11-21T01:55:38;10.37;;;5.67;;
9960;SDS011;5021;51.506;11.320;2023-11-21T01:58:04;10.17;;;6.30;;
9960;SDS011;5021;51.506;11.320;2023-11-21T02:00:32;10.77;;;6.23;;
9960;SDS011;5021;51.506;11.320;2023-11-21T02:02:58;11.03;;;6.50;;
9960;SDS011;5021;51.506;11.320;2023-11-21T02:05:24;8.80;;;6.60;;
9960;SDS011;5021;51.506;11.320;2023-11-21T02:07:51;9.53;;;5.73;;
9960;SDS011;5021;51.506;11.320;2023-11-21T02:10:17;13.07;;;5.60;;
9960;SDS011;5021;51.506;11.320;2023-11-21T02:12:47;12.77;;;6.70;;
9960;SDS011;5021;51.506;11.320;2023-11-21T02:15:15;11.20;;;6.17;;
9960;SDS011;5021;51.506;11.320;2023-11-21T02:17:44;9.60;;;5.70;;
9960;SDS011;5021;51.506;11.320;2023-11-21T02:20:12;8.20;;;5.13;;
9960;SDS011;5021;51.506;11.320;2023-11-21T02:22:42;7.13;;;5.30;;
9960;SDS011;5021;51.506;11.320;2023-11-21T02:25:09;7.37;;;5.07;;
9960;SDS011;5021;51.506;11.320;2023-11-21T02:27:34;8.70;;;5.80;;
9960;SDS011;5021;51.506;11.320;2023-11-21T02:30:01;11.17;;;6.20;;
9960;SDS011;5021;51.506;11.320;2023-11-21T02:32:29;7.50;;;5.30;;
9960;SDS011;5021;51.506;11.320;2023-11-21T02:34:56;7.70;;;5.57;;
9960;SDS011;5021;51.506;11.320;2023-11-21T02:37:26;7.90;;;5.40;;
9960;SDS011;5021;51.506;11.320;2023-11-21T02:39:52;7.43;;;5.30;;
9960;SDS011;5021;51.506;11.320;2023-11-21T02:42:18;6.53;;;5.03;;
9960;SDS011;5021;51.506;11.320;2023-11-21T02:44:44;7.73;;;5.37;;
9960;SDS011;5021;51.506;11.320;2023-11-21T02:47:10;10.10;;;6.30;;
9960;SDS011;5021;51.506;11.320;2023-11-21T02:49:36;10.50;;;5.77;;
9960;SDS011;5021;51.506;11.320;2023-11-21T02:52:02;10.57;;;5.97;;
9960;SDS011;5021;51.506;11.320;2023-11-21T02:54:28;11.17;;;7.33;;
9960;SDS011;5021;51.506;11.320;2023-11-21T02:56:54;8.03;;;6.00;;
9960;SDS011;5021;51.506;11.320;2023-11-21T02:59:20;9.17;;;6.90;;
9960;SDS011;5021;51.506;11.320;2023-11-21T03:01:46;9.33;;;6.63;;
9960;SDS011;5021;51.506;11.320;2023-11-21T03:04:12;12.33;;;7.30;;
9960;SDS011;5021;51.506;11.320;2023-11-21T03:06:42;10.40;;;6.60;;
9960;SDS011;5021;51.506;11.320;2023-11-21T03:09:09;10.23;;;6.90;;
9960;SDS011;5021;51.506;11.320;2023-11-21T03:11:36;9.13;;;6.40;;
9960;SDS011;5021;51.506;11.320;2023-11-21T03:14:02;13.07;;;7.23;;
9960;SDS011;5021;51.506;11.320;2023-11-21T03:16:28;10.60;;;7.20;;
9960;SDS011;5021;51.506;11.320;2023-11-21T03:18:55;8.73;;;6.37;;
9960;SDS011;5021;51.506;11.320;2023-11-21T03:21:21;13.03;;;6.10;;
9960;SDS011;5021;51.506;11.320;2023-11-21T03:23:47;14.50;;;6.60;;
9960;SDS011;5021;51.506;11.320;2023-11-21T03:26:13;10.47;;;6.10;;
9960;SDS011;5021;51.506;11.320;2023-11-21T03:28:39;12.60;;;6.30;;
9960;SDS011;5021;51.506;11.320;2023-11-21T03:31:05;10.63;;;6.50;;
9960;SDS011;5021;51.506;11.320;2023-11-21T03:33:31;8.47;;;5.93;;
9960;SDS011;5021;51.506;11.320;2023-11-21T03:35:57;8.93;;;6.00;;
9960;SDS011;5021;51.506;11.320;2023-11-21T03:38:23;7.70;;;5.53;;
9960;SDS011;5021;51.506;11.320;2023-11-21T03:40:49;8.70;;;6.10;;
9960;SDS011;5021;51.506;11.320;2023-11-21T03:43:15;10.53;;;6.63;;
9960;SDS011;5021;51.506;11.320;2023-11-21T03:45:41;9.53;;;6.23;;
9960;SDS011;5021;51.506;11.320;2023-11-21T03:48:07;8.47;;;6.33;;
9960;SDS011;5021;51.506;11.320;2023-11-21T03:50:34;12.77;;;6.63;;
9960;SDS011;5021;51.506;11.320;2023-11-21T03:53:00;8.23;;;5.83;;
9960;SDS011;5021;51.506;11.320;2023-11-21T03:55:26;7.80;;;5.73;;
9960;SDS011;5021;51.506;11.320;2023-11-21T03:57:52;9.93;;;6.20;;
9960;SDS011;5021;51.506;11.320;2023-11-21T04:00:18;11.37;;;6.53;;
9960;SDS011;5021;51.506;11.320;2023-11-21T04:02:45;7.40;;;5.63;;
9960;SDS011;5021;51.506;11.320;2023-11-21T04:05:11;7.77;;;4.80;;
9960;SDS011;5021;51.506;11.320;2023-11-21T04:07:37;7.63;;;5.60;;
9960;SDS011;5021;51.506;11.320;2023-11-21T04:10:03;8.00;;;5.53;;
9960;SDS011;5021;51.506;11.320;2023-11-21T04:12:32;13.43;;;6.00;;
9960;SDS011;5021;51.506;11.320;2023-11-21T04:14:58;10.90;;;6.30;;
9960;SDS011;5021;51.506;11.320;2023-11-21T04:17:24;8.27;;;5.63;;
9960;SDS011;5021;51.506;11.320;2023-11-21T04:19:50;8.03;;;5.37;;
9960;SDS011;5021;51.506;11.320;2023-11-21T04:22:16;11.73;;;5.60;;
9960;SDS011;5021;51.506;11.320;2023-11-21T04:24:42;8.20;;;5.60;;
9960;SDS011;5021;51.506;11.320;2023-11-21T04:27:08;7.20;;;5.53;;
9960;SDS011;5021;51.506;11.320;2023-11-21T04:29:34;7.80;;;5.07;;
9960;SDS011;5021;51.506;11.320;2023-11-21T04:32:00;8.20;;;5.10;;
9960;SDS011;5021;51.506;11.320;2023-11-21T04:34:27;8.73;;;5.30;;
9960;SDS011;5021;51.506;11.320;2023-11-21T04:36:56;9.73;;;5.40;;
9960;SDS011;5021;51.506;11.320;2023-11-21T04:39:22;8.93;;;5.47;;
9960;SDS011;5021;51.506;11.320;2023-11-21T04:41:48;8.03;;;4.87;;
9960;SDS011;5021;51.506;11.320;2023-11-21T04:44:14;8.27;;;5.13;;
9960;SDS011;5021;51.506;11.320;2023-11-21T04:46:41;6.47;;;5.47;;
9960;SDS011;5021;51.506;11.320;2023-11-21T04:49:07;7.80;;;5.10;;
9960;SDS011;5021;51.506;11.320;2023-11-21T04:51:33;9.00;;;5.17;;
9960;SDS011;5021;51.506;11.320;2023-11-21T04:53:59;10.27;;;5.50;;
9960;SDS011;5021;51.506;11.320;2023-11-21T04:56:25;9.07;;;5.50;;
9960;SDS011;5021;51.506;11.320;2023-11-21T04:58:51;10.97;;;5.40;;
9960;SDS011;5021;51.506;11.320;2023-11-21T05:01:17;7.33;;;5.10;;
9960;SDS011;5021;51.506;11.320;2023-11-21T05:03:43;8.50;;;4.93;;
9960;SDS011;5021;51.506;11.320;2023-11-21T05:06:09;5.53;;;4.83;;
9960;SDS011;5021;51.506;11.320;2023-11-21T05:08:35;10.03;;;5.60;;
9960;SDS011;5021;51.506;11.320;2023-11-21T05:11:02;9.07;;;5.13;;
9960;SDS011;5021;51.506;11.320;2023-11-21T05:13:28;6.80;;;5.17;;
9960;SDS011;5021;51.506;11.320;2023-11-21T05:15:55;8.80;;;5.70;;
9960;SDS011;5021;51.506;11.320;2023-11-21T05:18:24;7.40;;;5.37;;
9960;SDS011;5021;51.506;11.320;2023-11-21T05:20:54;8.37;;;4.90;;
9960;SDS011;5021;51.506;11.320;2023-11-21T05:23:20;7.63;;;5.20;;
9960;SDS011;5021;51.506;11.320;2023-11-21T05:25:46;9.80;;;5.40;;
9960;SDS011;5021;51.506;11.320;2023-11-21T05:28:12;10.07;;;5.83;;
9960;SDS011;5021;51.506;11.320;2023-11-21T05:30:38;9.27;;;5.73;;
9960;SDS011;5021;51.506;11.320;2023-11-21T05:33:04;8.47;;;5.03;;
9960;SDS011;5021;51.506;11.320;2023-11-21T05:35:30;7.33;;;5.83;;
9960;SDS011;5021;51.506;11.320;2023-11-21T05:37:56;6.23;;;4.57;;
9960;SDS011;5021;51.506;11.320;2023-11-21T05:40:22;8.53;;;5.70;;
9960;SDS011;5021;51.506;11.320;2023-11-21T05:42:48;8.13;;;5.50;;
9960;SDS011;5021;51.506;11.320;2023-11-21T05:45:16;7.63;;;5.27;;
9960;SDS011;5021;51.506;11.320;2023-11-21T05:47:44;8.57;;;4.93;;
9960;SDS011;5021;51.506;11.320;2023-11-21T05:50:11;6.43;;;5.20;;
9960;SDS011;5021;51.506;11.320;2023-11-21T05:52:39;8.67;;;5.40;;
9960;SDS011;5021;51.506;11.320;2023-11-21T05:55:05;7.93;;;6.07;;
9960;SDS011;5021;51.506;11.320;2023-11-21T05:57:35;8.73;;;5.80;;
9960;SDS011;5021;51.506;11.320;2023-11-21T06:03:00;9.83;;;6.10;;
9960;SDS011;5021;51.506;11.320;2023-11-21T06:05:26;6.97;;;6.13;;
9960;SDS011;5021;51.506;11.320;2023-11-21T06:07:53;9.50;;;6.10;;
9960;SDS011;5021;51.506;11.320;2023-11-21T06:10:22;9.97;;;6.60;;
9960;SDS011;5021;51.506;11.320;2023-11-21T06:12:48;11.17;;;6.83;;
9960;SDS011;5021;51.506;11.320;2023-11-21T06:15:14;17.23;;;9.50;;
9960;SDS011;5021;51.506;11.320;2023-11-21T06:17:44;24.27;;;13.67;;
9960;SDS011;5021;51.506;11.320;2023-11-21T06:20:14;15.10;;;10.20;;
9960;SDS011;5021;51.506;11.320;2023-11-21T06:22:43;17.40;;;10.00;;
9960;SDS011;5021;51.506;11.320;2023-11-21T06:25:09;21.70;;;13.20;;
9960;SDS011;5021;51.506;11.320;2023-11-21T06:27:42;18.50;;;11.40;;
9960;SDS011;5021;51.506;11.320;2023-11-21T06:30:09;17.00;;;11.43;;
9960;SDS011;5021;51.506;11.320;2023-11-21T06:32:36;21.40;;;12.93;;
9960;SDS011;5021;51.506;11.320;2023-11-21T06:35:03;14.43;;;9.60;;
9960;SDS011;5021;51.506;11.320;2023-11-21T06:37:29;17.37;;;10.47;;
9960;SDS011;5021;51.506;11.320;2023-11-21T06:39:55;16.77;;;10.27;;
9960;SDS011;5021;51.506;11.320;2023-11-21T06:42:23;13.00;;;8.93;;
9960;SDS011;5021;51.506;11.320;2023-11-21T06:44:49;13.63;;;8.10;;
9960;SDS011;5021;51.506;11.320;2023-11-21T06:47:16;10.53;;;7.73;;
9960;SDS011;5021;51.506;11.320;2023-11-21T06:49:42;13.10;;;9.13;;
9960;SDS011;5021;51.506;11.320;2023-11-21T06:52:09;13.57;;;8.37;;
9960;SDS011;5021;51.506;11.320;2023-11-21T06:54:35;13.17;;;8.43;;
9960;SDS011;5021;51.506;11.320;2023-11-21T06:57:02;11.73;;;7.83;;
9960;SDS011;5021;51.506;11.320;2023-11-21T06:59:28;10.90;;;8.10;;
9960;SDS011;5021;51.506;11.320;2023-11-21T07:01:54;10.57;;;8.57;;
9960;SDS011;5021;51.506;11.320;2023-11-21T07:04:20;8.90;;;6.50;;
9960;SDS011;5021;51.506;11.320;2023-11-21T07:06:46;10.47;;;7.87;;
9960;SDS011;5021;51.506;11.320;2023-11-21T07:09:12;9.87;;;7.77;;
9960;SDS011;5021;51.506;11.320;2023-11-21T07:11:38;10.07;;;7.87;;
9960;SDS011;5021;51.506;11.320;2023-11-21T07:14:04;27.17;;;19.93;;
9960;SDS011;5021;51.506;11.320;2023-11-21T07:16:35;23.80;;;19.77;;
9960;SDS011;5021;51.506;11.320;2023-11-21T07:19:03;15.60;;;12.70;;
9960;SDS011;5021;51.506;11.320;2023-11-21T07:21:31;20.13;;;13.23;;
9960;SDS011;5021;51.506;11.320;2023-11-21T07:23:57;14.83;;;10.90;;
9960;SDS011;5021;51.506;11.320;2023-11-21T07:26:23;20.30;;;12.67;;
9960;SDS011;5021;51.506;11.320;2023-11-21T07:28:50;23.10;;;12.30;;
9960;SDS011;5021;51.506;11.320;2023-11-21T07:31:16;12.93;;;9.90;;
9960;SDS011;5021;51.506;11.320;2023-11-21T07:33:42;15.70;;;11.00;;
9960;SDS011;5021;51.506;11.320;2023-11-21T07:36:08;17.20;;;11.77;;
9960;SDS011;5021;51.506;11.320;2023-11-21T07:38:35;22.90;;;14.13;;
9960;SDS011;5021;51.506;11.320;2023-11-21T07:41:01;17.10;;;12.07;;
9960;SDS011;5021;51.506;11.320;2023-11-21T07:43:27;16.63;;;10.77;;
9960;SDS011;5021;51.506;11.320;2023-11-21T07:45:59;13.73;;;10.30;;
9960;SDS011;5021;51.506;11.320;2023-11-21T07:48:25;16.60;;;11.67;;
9960;SDS011;5021;51.506;11.320;2023-11-21T07:50:51;13.33;;;10.43;;
9960;SDS011;5021;51.506;11.320;2023-11-21T07:53:17;12.60;;;9.70;;
9960;SDS011;5021;51.506;11.320;2023-11-21T07:55:43;14.57;;;9.97;;
9960;SDS011;5021;51.506;11.320;2023-11-21T07:58:10;15.13;;;9.87;;
9960;SDS011;5021;51.506;11.320;2023-11-21T08:00:37;16.03;;;9.73;;
9960;SDS011;5021;51.506;11.320;2023-11-21T08:03:04;14.43;;;11.00;;
9960;SDS011;5021;51.506;11.320;2023-11-21T08:05:30;14.20;;;11.93;;
9960;SDS011;5021;51.506;11.320;2023-11-21T08:07:56;19.77;;;15.80;;
9960;SDS011;5021;51.506;11.320;2023-11-21T08:10:22;25.93;;;15.80;;
9960;SDS011;5021;51.506;11.320;2023-11-21T08:12:48;15.20;;;12.07;;
9960;SDS011;5021;51.506;11.320;2023-11-21T08:15:15;14.73;;;10.70;;
9960;SDS011;5021;51.506;11.320;2023-11-21T08:17:41;13.13;;;9.90;;
9960;SDS011;5021;51.506;11.320;2023-11-21T08:20:07;14.23;;;9.73;;
9960;SDS011;5021;51.506;11.320;2023-11-21T08:22:35;11.10;;;9.70;;
9960;SDS011;5021;51.506;11.320;2023-11-21T08:25:02;10.53;;;8.83;;
9960;SDS011;5021;51.506;11.320;2023-11-21T08:27:29;9.83;;;8.17;;
9960;SDS011;5021;51.506;11.320;2023-11-21T08:29:55;9.97;;;7.70;;
9960;SDS011;5021;51.506;11.320;2023-11-21T08:32:22;14.20;;;8.30;;
9960;SDS011;5021;51.506;11.320;2023-11-21T08:34:48;13.60;;;8.10;;
9960;SDS011;5021;51.506;11.320;2023-11-21T08:37:15;11.10;;;8.37;;
9960;SDS011;5021;51.506;11.320;2023-11-21T08:39:41;14.40;;;8.50;;
9960;SDS011;5021;51.506;11.320;2023-11-21T08:42:07;12.83;;;9.67;;
9960;SDS011;5021;51.506;11.320;2023-11-21T08:44:33;13.17;;;8.87;;
9960;SDS011;5021;51.506;11.320;2023-11-21T08:46:59;12.73;;;9.63;;
9960;SDS011;5021;51.506;11.320;2023-11-21T08:49:25;11.73;;;8.90;;
9960;SDS011;5021;51.506;11.320;2023-11-21T08:51:53;13.43;;;9.33;;
9960;SDS011;5021;51.506;11.320;2023-11-21T08:54:20;13.93;;;9.70;;
9960;SDS011;5021;51.506;11.320;2023-11-21T08:56:46;14.33;;;9.60;;
9960;SDS011;5021;51.506;11.320;2023-11-21T08:59:12;13.13;;;10.60;;
9960;SDS011;5021;51.506;11.320;2023-11-21T09:01:41;12.67;;;9.23;;
9960;SDS011;5021;51.506;11.320;2023-11-21T09:04:07;11.73;;;9.03;;
9960;SDS011;5021;51.506;11.320;2023-11-21T09:06:33;12.57;;;9.63;;
9960;SDS011;5021;51.506;11.320;2023-11-21T09:09:00;14.47;;;10.50;;
9960;SDS011;5021;51.506;11.320;2023-11-21T09:11:26;12.53;;;10.00;;
9960;SDS011;5021;51.506;11.320;2023-11-21T09:13:58;10.73;;;8.30;;
9960;SDS011;5021;51.506;11.320;2023-11-21T09:16:24;7.13;;;5.60;;
9960;SDS011;5021;51.506;11.320;2023-11-21T09:18:50;6.03;;;5.43;;
9960;SDS011;5021;51.506;11.320;2023-11-21T09:21:16;6.13;;;4.20;;
9960;SDS011;5021;51.506;11.320;2023-11-21T09:23:43;4.57;;;4.07;;
9960;SDS011;5021;51.506;11.320;2023-11-21T09:26:09;4.70;;;3.60;;
9960;SDS011;5021;51.506;11.320;2023-11-21T09:28:35;5.27;;;4.17;;
9960;SDS011;5021;51.506;11.320;2023-11-21T09:31:04;5.53;;;4.20;;
9960;SDS011;5021;51.506;11.320;2023-11-21T09:33:30;4.63;;;3.47;;
9960;SDS011;5021;51.506;11.320;2023-11-21T09:35:56;5.93;;;4.37;;
9960;SDS011;5021;51.506;11.320;2023-11-21T09:38:22;6.47;;;4.00;;
9960;SDS011;5021;51.506;11.320;2023-11-21T09:40:49;4.73;;;3.63;;
9960;SDS011;5021;51.506;11.320;2023-11-21T09:43:18;5.53;;;3.50;;
9960;SDS011;5021;51.506;11.320;2023-11-21T09:45:47;6.03;;;4.67;;
9960;SDS011;5021;51.506;11.320;2023-11-21T09:48:15;3.70;;;3.03;;
9960;SDS011;5021;51.506;11.320;2023-11-21T09:50:42;4.40;;;3.07;;
9960;SDS011;5021;51.506;11.320;2023-11-21T09:53:13;3.93;;;3.00;;
9960;SDS011;5021;51.506;11.320;2023-11-21T09:55:43;5.00;;;3.90;;
9960;SDS011;5021;51.506;11.320;2023-11-21T09:58:10;5.80;;;4.97;;
9960;SDS011;5021;51.506;11.320;2023-11-21T10:00:46;7.17;;;5.20;;
9960;SDS011;5021;51.506;11.320;2023-11-21T10:03:12;7.23;;;5.27;;
9960;SDS011;5021;51.506;11.320;2023-11-21T10:05:39;7.40;;;4.83;;
9960;SDS011;5021;51.506;11.320;2023-11-21T10:08:08;6.43;;;5.33;;
9960;SDS011;5021;51.506;11.320;2023-11-21T10:10:35;14.33;;;6.43;;
9960;SDS011;5021;51.506;11.320;2023-11-21T10:13:02;6.33;;;4.67;;
9960;SDS011;5021;51.506;11.320;2023-11-21T10:15:31;7.07;;;4.90;;
9960;SDS011;5021;51.506;11.320;2023-11-21T10:17:59;7.50;;;5.50;;
9960;SDS011;5021;51.506;11.320;2023-11-21T10:20:25;9.80;;;5.60;;
9960;SDS011;5021;51.506;11.320;2023-11-21T10:22:52;4.80;;;4.30;;
9960;SDS011;5021;51.506;11.320;2023-11-21T10:25:18;11.67;;;6.90;;
9960;SDS011;5021;51.506;11.320;2023-11-21T10:27:47;12.00;;;5.83;;
9960;SDS011;5021;51.506;11.320;2023-11-21T10:30:15;6.27;;;4.33;;
9960;SDS011;5021;51.506;11.320;2023-11-21T10:32:41;4.80;;;4.23;;
9960;SDS011;5021;51.506;11.320;2023-11-21T10:35:09;5.73;;;4.17;;
9960;SDS011;5021;51.506;11.320;2023-11-21T10:37:44;4.40;;;3.77;;
9960;SDS011;5021;51.506;11.320;2023-11-21T10:40:20;5.57;;;4.90;;
9960;SDS011;5021;51.506;11.320;2023-11-21T10:42:46;4.97;;;4.17;;
9960;SDS011;5021;51.506;11.320;2023-11-21T10:45:12;5.10;;;3.77;;
9960;SDS011;5021;51.506;11.320;2023-11-21T10:47:39;4.27;;;3.37;;
9960;SDS011;5021;51.506;11.320;2023-11-21T10:50:05;3.80;;;3.40;;
9960;SDS011;5021;51.506;11.320;2023-11-21T10:52:35;3.80;;;2.87;;
9960;SDS011;5021;51.506;11.320;2023-11-21T10:55:08;3.70;;;3.00;;
9960;SDS011;5021;51.506;11.320;2023-11-21T10:57:41;4.13;;;3.43;;
9960;SDS011;5021;51.506;11.320;2023-11-21T11:00:07;6.87;;;4.80;;
9960;SDS011;5021;51.506;11.320;2023-11-21T11:02:37;6.17;;;5.23;;
9960;SDS011;5021;51.506;11.320;2023-11-21T11:05:04;6.50;;;5.40;;
9960;SDS011;5021;51.506;11.320;2023-11-21T11:07:31;7.67;;;6.00;;
9960;SDS011;5021;51.506;11.320;2023-11-21T11:09:59;7.17;;;6.03;;
9960;SDS011;5021;51.506;11.320;2023-11-21T11:12:25;7.67;;;5.47;;
9960;SDS011;5021;51.506;11.320;2023-11-21T11:14:51;6.80;;;6.07;;
9960;SDS011;5021;51.506;11.320;2023-11-21T11:17:18;7.00;;;6.07;;
9960;SDS011;5021;51.506;11.320;2023-11-21T11:19:47;7.87;;;6.97;;
9960;SDS011;5021;51.506;11.320;2023-11-21T11:22:30;8.10;;;6.83;;
9960;SDS011;5021;51.506;11.320;2023-11-21T11:25:24;8.43;;;6.90;;
9960;SDS011;5021;51.506;11.320;2023-11-21T11:27:50;7.10;;;5.90;;
9960;SDS011;5021;51.506;11.320;2023-11-21T11:37:50;6.13;;;5.23;;
9960;SDS011;5021;51.506;11.320;2023-11-21T11:40:16;7.00;;;5.50;;
9960;SDS011;5021;51.506;11.320;2023-11-21T11:43:00;6.07;;;5.37;;
9960;SDS011;5021;51.506;11.320;2023-11-21T11:45:33;7.50;;;5.90;;
9960;SDS011;5021;51.506;11.320;2023-11-21T11:48:00;7.10;;;6.20;;
9960;SDS011;5021;51.506;11.320;2023-11-21T11:50:27;8.00;;;6.63;;
9960;SDS011;5021;51.506;11.320;2023-11-21T11:52:53;9.63;;;6.83;;
9960;SDS011;5021;51.506;11.320;2023-11-21T11:55:20;8.00;;;6.90;;
9960;SDS011;5021;51.506;11.320;2023-11-21T11:57:47;9.73;;;7.57;;
9960;SDS011;5021;51.506;11.320;2023-11-21T12:00:17;10.20;;;8.00;;
9960;SDS011;5021;51.506;11.320;2023-11-21T12:02:46;12.90;;;9.13;;
9960;SDS011;5021;51.506;11.320;2023-11-21T12:05:13;13.17;;;10.40;;
9960;SDS011;5021;51.506;11.320;2023-11-21T12:07:42;14.33;;;11.40;;
9960;SDS011;5021;51.506;11.320;2023-11-21T12:10:11;17.00;;;13.17;;
9960;SDS011;5021;51.506;11.320;2023-11-21T12:12:36;17.83;;;13.03;;
9960;SDS011;5021;51.506;11.320;2023-11-21T12:15:04;17.50;;;13.33;;
9960;SDS011;5021;51.506;11.320;2023-11-21T12:17:30;17.53;;;13.80;;
9960;SDS011;5021;51.506;11.320;2023-11-21T12:20:03;17.83;;;14.23;;
9960;SDS011;5021;51.506;11.320;2023-11-21T12:22:29;17.30;;;13.93;;
9960;SDS011;5021;51.506;11.320;2023-11-21T12:24:56;17.73;;;13.63;;
9960;SDS011;5021;51.506;11.320;2023-11-21T12:27:21;14.53;;;11.70;;
9960;SDS011;5021;51.506;11.320;2023-11-21T12:29:47;14.23;;;11.50;;
9960;SDS011;5021;51.506;11.320;2023-11-21T12:32:13;14.47;;;11.70;;
9960;SDS011;5021;51.506;11.320;2023-11-21T12:34:42;14.63;;;11.60;;
9960;SDS011;5021;51.506;11.320;2023-11-21T12:37:09;14.53;;;11.57;;
9960;SDS011;5021;51.506;11.320;2023-11-21T12:39:35;12.10;;;10.83;;
9960;SDS011;5021;51.506;11.320;2023-11-21T12:42:01;12.90;;;11.20;;
9960;SDS011;5021;51.506;11.320;2023-11-21T12:44:27;13.30;;;10.93;;
9960;SDS011;5021;51.506;11.320;2023-11-21T12:46:54;14.37;;;11.60;;
9960;SDS011;5021;51.506;11.320;2023-11-21T12:49:20;12.40;;;10.33;;
9960;SDS011;5021;51.506;11.320;2023-11-21T12:51:47;10.07;;;8.87;;
9960;SDS011;5021;51.506;11.320;2023-11-21T12:54:13;12.20;;;9.57;;
9960;SDS011;5021;51.506;11.320;2023-11-21T12:56:39;13.80;;;10.93;;
9960;SDS011;5021;51.506;11.320;2023-11-21T12:59:05;11.73;;;9.10;;
9960;SDS011;5021;51.506;11.320;2023-11-21T13:01:31;10.83;;;8.17;;
9960;SDS011;5021;51.506;11.320;2023-11-21T13:03:57;9.67;;;8.47;;
9960;SDS011;5021;51.506;11.320;2023-11-21T13:06:23;10.83;;;8.70;;
9960;SDS011;5021;51.506;11.320;2023-11-21T13:08:51;10.20;;;8.40;;
9960;SDS011;5021;51.506;11.320;2023-11-21T13:11:17;10.23;;;9.13;;
9960;SDS011;5021;51.506;11.320;2023-11-21T13:13:43;11.97;;;9.73;;
9960;SDS011;5021;51.506;11.320;2023-11-21T13:16:09;13.80;;;10.40;;
9960;SDS011;5021;51.506;11.320;2023-11-21T13:18:35;11.07;;;9.67;;
9960;SDS011;5021;51.506;11.320;2023-11-21T13:21:02;13.63;;;9.63;;
9960;SDS011;5021;51.506;11.320;2023-11-21T13:23:35;14.60;;;10.23;;
9960;SDS011;5021;51.506;11.320;2023-11-21T13:26:02;11.27;;;10.07;;
9960;SDS011;5021;51.506;11.320;2023-11-21T13:28:29;11.07;;;9.63;;
9960;SDS011;5021;51.506;11.320;2023-11-21T13:30:58;11.63;;;10.03;;
9960;SDS011;5021;51.506;11.320;2023-11-21T13:33:28;12.27;;;10.47;;
9960;SDS011;5021;51.506;11.320;2023-11-21T13:35:54;13.43;;;11.20;;
9960;SDS011;5021;51.506;11.320;2023-11-21T13:38:21;13.33;;;11.43;;
9960;SDS011;5021;51.506;11.320;2023-11-21T13:43:17;13.13;;;9.97;;
9960;SDS011;5021;51.506;11.320;2023-11-21T13:45:45;11.83;;;9.97;;
9960;SDS011;5021;51.506;11.320;2023-11-21T13:48:11;13.23;;;10.70;;
9960;SDS011;5021;51.506;11.320;2023-11-21T13:50:56;13.27;;;10.33;;
9960;SDS011;5021;51.506;11.320;2023-11-21T13:53:27;13.77;;;11.13;;
9960;SDS011;5021;51.506;11.320;2023-11-21T13:55:53;13.77;;;10.27;;
9960;SDS011;5021;51.506;11.320;2023-11-21T13:58:25;10.53;;;9.23;;
9960;SDS011;5021;51.506;11.320;2023-11-21T14:01:15;12.07;;;10.27;;
9960;SDS011;5021;51.506;11.320;2023-11-21T14:04:00;11.23;;;9.80;;
9960;SDS011;5021;51.506;11.320;2023-11-21T14:06:34;14.10;;;11.20;;
9960;SDS011;5021;51.506;11.320;2023-11-21T14:09:08;12.03;;;9.93;;
9960;SDS011;5021;51.506;11.320;2023-11-21T14:11:34;10.30;;;9.20;;
9960;SDS011;5021;51.506;11.320;2023-11-21T14:14:03;11.83;;;10.23;;
9960;SDS011;5021;51.506;11.320;2023-11-21T14:16:30;13.23;;;10.80;;
9960;SDS011;5021;51.506;11.320;2023-11-21T14:18:56;13.27;;;10.17;;
9960;SDS011;5021;51.506;11.320;2023-11-21T14:21:38;11.50;;;8.97;;
9960;SDS011;5021;51.506;11.320;2023-11-21T14:24:07;12.03;;;9.20;;
9960;SDS011;5021;51.506;11.320;2023-11-21T14:26:34;13.37;;;9.53;;
9960;SDS011;5021;51.506;11.320;2023-11-21T14:29:00;13.27;;;10.33;;
9960;SDS011;5021;51.506;11.320;2023-11-21T14:31:27;14.83;;;10.73;;
9960;SDS011;5021;51.506;11.320;2023-11-21T14:33:55;14.30;;;9.43;;
9960;SDS011;5021;51.506;11.320;2023-11-21T14:36:21;12.20;;;9.77;;
9960;SDS011;5021;51.506;11.320;2023-11-21T14:38:48;12.73;;;9.57;;
9960;SDS011;5021;51.506;11.320;2023-11-21T14:41:14;13.43;;;10.53;;
9960;SDS011;5021;51.506;11.320;2023-11-21T14:43:41;13.33;;;10.90;;
9960;SDS011;5021;51.506;11.320;2023-11-21T14:46:07;11.33;;;9.03;;
9960;SDS011;5021;51.506;11.320;2023-11-21T14:48:35;11.13;;;9.60;;
9960;SDS011;5021;51.506;11.320;2023-11-21T14:51:08;12.93;;;10.87;;
9960;SDS011;5021;51.506;11.320;2023-11-21T14:53:59;14.97;;;10.00;;
9960;SDS011;5021;51.506;11.320;2023-11-21T14:56:31;14.63;;;11.73;;
9960;SDS011;5021;51.506;11.320;2023-11-21T14:59:00;13.43;;;10.33;;
9960;SDS011;5021;51.506;11.320;2023-11-21T15:01:41;12.83;;;10.17;;
9960;SDS011;5021;51.506;11.320;2023-11-21T15:04:23;16.00;;;11.47;;